Terminal Aerodrome Forecast
Issued by NWS

Home | Current Version | Previous Version | Text Only | Print | Product List | Glossary On
Versions: 1 2 3 4 5 6 7 8 9 10 11 12 13 14 15 16 17 18 19
208
FTUS43 KDTX 191121
TAFDET
TAF
KDET 191121Z 1912/2012 04005KT P6SM SCT012 OVC035
      TEMPO 1912/1914 OVC006
     FM191400 06005KT P6SM SCT016 BKN040 OVC090
      TEMPO 1914/1917 P6SM -SHRA BKN016 OVC040
     FM191700 10005KT 6SM -SHRA BR BKN018 OVC040
     FM192100 12005KT P6SM BKN022 OVC080
     FM200200 16004KT 4SM BR BKN012 OVC060=

USA.gov is the U.S. government's official web portal to all federal, state and local government web resources and services.